createdAt,value
2022-10-23T00:00:15.688Z,5.10
2022-10-23T00:02:42.402Z,4.53
2022-10-23T00:05:09.208Z,4.73
2022-10-23T00:07:35.611Z,5.27
2022-10-23T00:10:02.097Z,5.10
2022-10-23T00:12:28.548Z,4.60
2022-10-23T00:14:55.014Z,4.80
2022-10-23T00:17:21.478Z,4.60
2022-10-23T00:19:47.920Z,5.10
2022-10-23T00:22:14.333Z,4.83
2022-10-23T00:24:40.756Z,5.13
2022-10-23T00:27:07.416Z,5.00
2022-10-23T00:29:33.823Z,4.73
2022-10-23T00:32:00.236Z,4.93
2022-10-23T00:34:26.700Z,5.40
2022-10-23T00:36:53.120Z,5.00
2022-10-23T00:39:19.560Z,5.93
2022-10-23T00:41:46.076Z,6.53
2022-10-23T00:44:18.323Z,6.03
2022-10-23T00:46:45.991Z,6.03
2022-10-23T00:51:49.009Z,5.87
2022-10-23T00:54:24.792Z,5.10
2022-10-23T00:56:53.584Z,5.60
2022-10-23T00:59:20.354Z,5.63
2022-10-23T01:01:46.933Z,5.30
2022-10-23T01:04:13.650Z,5.47
2022-10-23T01:06:51.093Z,6.00
2022-10-23T01:09:29.155Z,5.50
2022-10-23T01:11:58.543Z,5.37
2022-10-23T01:14:28.655Z,5.73
2022-10-23T01:17:09.508Z,5.40
2022-10-23T01:19:50.258Z,5.77
2022-10-23T01:22:35.601Z,5.40
2022-10-23T01:25:07.749Z,5.00
2022-10-23T01:27:39.840Z,5.07
2022-10-23T01:30:06.518Z,5.70
2022-10-23T01:32:52.796Z,5.90
2022-10-23T01:35:22.659Z,5.73
2022-10-23T01:38:03.562Z,5.87
2022-10-23T01:40:34.994Z,5.60
2022-10-23T01:43:06.067Z,5.03
2022-10-23T01:45:34.398Z,5.60
2022-10-23T01:48:01.641Z,5.90
2022-10-23T01:50:29.019Z,5.97
2022-10-23T01:53:00.888Z,5.60
2022-10-23T01:55:27.450Z,5.70
2022-10-23T01:57:56.642Z,5.50
2022-10-23T02:00:27.022Z,6.00
2022-10-23T02:02:54.298Z,5.50
2022-10-23T02:05:26.999Z,5.07
2022-10-23T02:07:55.275Z,5.20
2022-10-23T02:10:22.647Z,5.40
2022-10-23T02:12:52.320Z,5.50
2022-10-23T02:15:32.948Z,5.27
2022-10-23T02:18:07.424Z,5.30
2022-10-23T02:20:37.782Z,5.27
2022-10-23T02:23:07.097Z,5.90
2022-10-23T02:25:36.259Z,5.20
2022-10-23T02:28:06.184Z,5.57
2022-10-23T02:30:41.848Z,5.50
2022-10-23T02:33:12.228Z,5.17
2022-10-23T02:35:39.210Z,5.60
2022-10-23T02:38:36.750Z,5.43
2022-10-23T02:41:23.478Z,5.60
2022-10-23T02:43:56.225Z,5.20
2022-10-23T02:46:34.466Z,5.40
2022-10-23T02:49:00.907Z,5.13
2022-10-23T02:51:39.378Z,5.43
2022-10-23T02:54:14.942Z,5.10
2022-10-23T02:56:54.857Z,5.23
2022-10-23T02:59:27.789Z,5.03
2022-10-23T03:02:23.634Z,5.23
2022-10-23T03:04:50.972Z,5.20
2022-10-23T03:07:18.731Z,4.77
2022-10-23T03:09:45.363Z,4.80
2022-10-23T03:12:13.583Z,5.43
2022-10-23T03:14:40.031Z,4.97
2022-10-23T03:17:07.694Z,4.53
2022-10-23T03:19:34.157Z,5.37
2022-10-23T03:22:04.327Z,4.80
2022-10-23T03:24:30.774Z,4.87
2022-10-23T03:26:57.246Z,5.67
2022-10-23T03:29:30.381Z,5.37
2022-10-23T03:31:57.145Z,4.70
2022-10-23T03:34:23.613Z,5.00
2022-10-23T03:36:52.608Z,4.90
2022-10-23T03:39:20.364Z,4.60
2022-10-23T03:41:47.395Z,4.63
2022-10-23T03:44:15.709Z,4.80
2022-10-23T03:46:44.659Z,4.73
2022-10-23T03:49:11.148Z,4.40
2022-10-23T03:51:41.549Z,4.83
2022-10-23T03:54:08.374Z,4.50
2022-10-23T03:56:34.816Z,4.37
2022-10-23T03:59:01.307Z,4.60
2022-10-23T04:01:27.939Z,4.43
2022-10-23T04:03:54.901Z,3.90
2022-10-23T04:06:24.063Z,4.50
2022-10-23T04:08:54.920Z,4.60
2022-10-23T04:11:22.121Z,4.37
2022-10-23T04:13:48.802Z,4.27
2022-10-23T04:16:15.255Z,4.73
2022-10-23T04:18:43.968Z,4.53
2022-10-23T04:21:11.014Z,4.27
2022-10-23T04:23:38.579Z,4.27
2022-10-23T04:26:10.294Z,4.23
2022-10-23T04:28:36.767Z,4.20
2022-10-23T04:31:03.202Z,4.80
2022-10-23T04:33:29.782Z,3.93
2022-10-23T04:35:56.292Z,4.03
2022-10-23T04:38:22.924Z,4.10
2022-10-23T04:40:50.085Z,3.77
2022-10-23T04:43:20.560Z,3.90
2022-10-23T04:45:48.281Z,4.17
2022-10-23T04:48:14.757Z,3.97
2022-10-23T04:51:03.774Z,3.67
2022-10-23T04:53:51.482Z,4.13
2022-10-23T04:56:41.740Z,4.27
2022-10-23T04:59:12.871Z,4.10
2022-10-23T05:01:40.721Z,4.10
2022-10-23T05:04:09.022Z,4.10
2022-10-23T05:06:55.504Z,3.30
2022-10-23T05:09:42.211Z,4.10
2022-10-23T05:12:16.689Z,3.90
2022-10-23T05:14:43.206Z,4.20
2022-10-23T05:17:29.947Z,3.97
2022-10-23T05:19:57.794Z,3.80
2022-10-23T05:22:26.910Z,3.60
2022-10-23T05:24:53.891Z,3.80
2022-10-23T05:27:24.115Z,4.00
2022-10-23T05:29:51.923Z,4.50
2022-10-23T05:32:24.694Z,3.70
2022-10-23T05:34:52.435Z,4.60
2022-10-23T05:37:19.062Z,4.77
2022-10-23T05:39:45.588Z,4.33
2022-10-23T05:42:14.222Z,4.00
2022-10-23T05:44:41.710Z,3.83
2022-10-23T05:47:28.406Z,3.93
2022-10-23T05:50:00.512Z,3.87
2022-10-23T05:52:51.310Z,11.97
2022-10-23T05:55:47.087Z,5.90
2022-10-23T05:58:31.380Z,4.53
2022-10-23T06:01:07.161Z,4.87
2022-10-23T06:03:53.604Z,4.23
2022-10-23T06:06:24.101Z,4.03
2022-10-23T06:08:50.584Z,4.33
2022-10-23T06:11:20.264Z,4.00
2022-10-23T06:16:27.290Z,4.43
2022-10-23T06:18:54.413Z,4.60
2022-10-23T06:21:21.081Z,4.07
2022-10-23T06:23:49.715Z,4.10
2022-10-23T06:26:17.115Z,4.67
2022-10-23T06:29:00.510Z,4.60
2022-10-23T06:31:28.342Z,4.20
2022-10-23T06:33:57.618Z,6.20
2022-10-23T06:36:24.614Z,5.83
2022-10-23T06:38:53.827Z,5.35
2022-10-23T06:41:23.401Z,4.60
2022-10-23T06:43:54.865Z,5.30
2022-10-23T06:46:47.592Z,5.10
2022-10-23T06:49:32.673Z,4.97
2022-10-23T06:51:59.866Z,4.03
2022-10-23T06:54:26.321Z,4.40
2022-10-23T06:56:58.444Z,4.37
2022-10-23T06:59:35.261Z,4.80
2022-10-23T07:02:02.253Z,4.37
2022-10-23T07:04:29.416Z,5.00
2022-10-23T07:07:01.679Z,5.20
2022-10-23T07:09:37.239Z,4.50
2022-10-23T07:12:21.980Z,5.07
2022-10-23T07:14:54.741Z,4.33
2022-10-23T07:17:22.057Z,4.50
2022-10-23T07:19:48.950Z,5.00
2022-10-23T07:22:16.151Z,4.47
2022-10-23T07:24:51.001Z,5.23
2022-10-23T07:27:25.543Z,5.27
2022-10-23T07:29:55.844Z,4.90
2022-10-23T07:32:24.406Z,5.07
2022-10-23T07:35:10.218Z,4.97
2022-10-23T07:37:39.317Z,5.00
2022-10-23T07:40:06.325Z,5.20
2022-10-23T07:42:39.549Z,5.00
2022-10-23T07:45:08.682Z,5.40
2022-10-23T07:47:37.725Z,5.07
2022-10-23T07:50:04.291Z,5.50
2022-10-23T07:52:33.600Z,5.10
2022-10-23T07:55:13.072Z,4.90
2022-10-23T07:57:49.493Z,4.47
2022-10-23T08:00:34.232Z,4.67
2022-10-23T08:03:14.515Z,4.87
2022-10-23T08:05:41.188Z,4.40
2022-10-23T08:08:08.667Z,4.70
2022-10-23T08:10:38.512Z,4.67
2022-10-23T08:13:10.334Z,4.20
2022-10-23T08:15:52.891Z,4.60
2022-10-23T08:18:42.876Z,7.90
2022-10-23T08:21:10.072Z,10.87
2022-10-23T08:23:36.500Z,5.37
2022-10-23T08:26:03.670Z,5.90
2022-10-23T08:28:31.904Z,5.30
2022-10-23T08:31:05.911Z,5.00
2022-10-23T08:33:32.352Z,5.60
2022-10-23T08:35:58.898Z,5.03
2022-10-23T08:38:30.317Z,4.67
2022-10-23T08:40:57.448Z,5.10
2022-10-23T08:44:17.723Z,5.33
2022-10-23T08:46:46.040Z,5.10
2022-10-23T08:49:30.966Z,4.60
2022-10-23T08:52:07.197Z,4.50
2022-10-23T08:54:47.750Z,4.50
2022-10-23T08:57:15.405Z,4.83
2022-10-23T08:59:46.007Z,5.43
2022-10-23T09:02:24.403Z,5.43
2022-10-23T09:04:52.220Z,5.47
2022-10-23T09:07:26.585Z,5.50
2022-10-23T09:10:01.894Z,4.73
2022-10-23T09:12:29.454Z,4.40
2022-10-23T09:15:03.006Z,4.73
2022-10-23T09:17:37.968Z,4.73
2022-10-23T09:20:18.564Z,5.63
2022-10-23T09:22:45.905Z,5.20
2022-10-23T09:25:17.545Z,4.90
2022-10-23T09:27:50.667Z,4.60
2022-10-23T09:30:49.030Z,5.00
2022-10-23T09:33:15.951Z,7.53
2022-10-23T09:35:53.340Z,4.23
2022-10-23T09:38:26.540Z,4.23
2022-10-23T09:40:53.203Z,3.80
2022-10-23T09:43:23.315Z,4.00
2022-10-23T09:46:00.531Z,5.40
2022-10-23T09:48:27.524Z,4.63
2022-10-23T09:50:57.185Z,4.37
2022-10-23T09:53:30.790Z,4.17
2022-10-23T09:55:59.589Z,3.80
2022-10-23T09:58:33.919Z,3.73
2022-10-23T10:01:00.677Z,3.73
2022-10-23T10:03:48.874Z,3.40
2022-10-23T10:06:24.388Z,3.17
2022-10-23T10:08:52.911Z,3.60
2022-10-23T10:11:19.349Z,3.67
2022-10-23T10:14:04.617Z,3.40
2022-10-23T10:19:11.456Z,3.50
2022-10-23T10:21:44.270Z,3.80
2022-10-23T10:24:19.975Z,3.30
2022-10-23T10:26:58.952Z,3.20
2022-10-23T10:29:34.457Z,3.10
2022-10-23T10:32:21.137Z,3.70
2022-10-23T10:34:53.716Z,3.30
2022-10-23T10:37:23.280Z,3.33
2022-10-23T10:39:58.648Z,4.00
2022-10-23T10:42:25.107Z,3.30
2022-10-23T10:44:51.526Z,3.47
2022-10-23T10:47:21.388Z,3.40
2022-10-23T10:49:52.641Z,3.47
2022-10-23T10:52:57.810Z,3.67
2022-10-23T10:55:27.722Z,3.40
2022-10-23T10:58:00.061Z,3.10
2022-10-23T11:00:27.292Z,3.17
2022-10-23T11:02:57.664Z,3.20
2022-10-23T11:05:31.269Z,3.40
2022-10-23T11:08:15.952Z,3.00
2022-10-23T11:10:44.519Z,3.33
2022-10-23T11:13:37.370Z,3.10
2022-10-23T11:16:15.174Z,3.20
2022-10-23T11:18:43.066Z,3.23
2022-10-23T11:21:09.447Z,3.30
2022-10-23T11:23:38.769Z,3.43
2022-10-23T11:26:11.036Z,3.70
2022-10-23T11:29:03.640Z,3.50
2022-10-23T11:31:30.125Z,3.47
2022-10-23T11:34:15.159Z,3.40
2022-10-23T11:36:52.717Z,3.43
2022-10-23T11:39:29.878Z,3.90
2022-10-23T11:42:06.574Z,3.33
2022-10-23T11:44:41.962Z,4.00
2022-10-23T11:47:27.331Z,4.10
2022-10-23T11:50:09.129Z,4.07
2022-10-23T11:52:45.454Z,3.97
2022-10-23T11:55:19.101Z,3.70
2022-10-23T11:58:05.121Z,4.60
2022-10-23T12:00:32.528Z,4.37
2022-10-23T12:02:59.465Z,4.20
2022-10-23T12:05:41.666Z,4.47
2022-10-23T12:08:19.802Z,3.80
2022-10-23T12:10:47.078Z,4.10
2022-10-23T12:13:44.715Z,4.60
2022-10-23T12:16:11.648Z,4.57
2022-10-23T12:18:50.292Z,4.17
2022-10-23T12:21:18.295Z,4.17
2022-10-23T12:23:47.370Z,4.00
2022-10-23T12:26:32.296Z,4.20
2022-10-23T12:29:08.897Z,4.53
2022-10-23T12:31:48.238Z,4.33
2022-10-23T12:34:23.979Z,4.37
2022-10-23T12:37:05.674Z,3.97
2022-10-23T12:39:33.477Z,3.93
2022-10-23T12:42:00.442Z,4.00
2022-10-23T12:44:27.711Z,3.93
2022-10-23T12:47:02.456Z,4.33
2022-10-23T12:49:32.064Z,4.60
2022-10-23T12:52:02.961Z,4.10
2022-10-23T12:54:33.653Z,4.53
2022-10-23T12:57:00.177Z,4.27
2022-10-23T12:59:36.726Z,4.60
2022-10-23T13:02:13.393Z,4.10
2022-10-23T13:04:40.610Z,4.40
2022-10-23T13:07:07.058Z,4.40
2022-10-23T13:09:34.902Z,3.50
2022-10-23T13:12:27.544Z,4.10
2022-10-23T13:15:06.197Z,3.67
2022-10-23T13:17:46.379Z,3.83
2022-10-23T13:20:15.790Z,3.70
2022-10-23T13:22:42.723Z,3.90
2022-10-23T13:25:21.555Z,3.80
2022-10-23T13:27:48.252Z,3.93
2022-10-23T13:30:34.538Z,3.47
2022-10-23T13:33:01.206Z,4.00
2022-10-23T13:35:27.746Z,3.77
2022-10-23T13:37:55.010Z,3.83
2022-10-23T13:40:26.171Z,4.00
2022-10-23T13:42:53.451Z,3.50
2022-10-23T13:45:22.180Z,3.10
2022-10-23T13:47:48.612Z,3.20
2022-10-23T13:50:15.177Z,3.57
2022-10-23T13:52:41.827Z,3.53
2022-10-23T13:55:18.301Z,2.80
2022-10-23T13:57:45.018Z,3.30
2022-10-23T14:00:12.048Z,3.10
2022-10-23T14:02:38.537Z,2.80
2022-10-23T14:05:05.179Z,3.00
2022-10-23T14:07:31.605Z,2.87
2022-10-23T14:09:58.035Z,2.97
2022-10-23T14:12:24.479Z,3.20
2022-10-23T14:14:51.872Z,3.07
2022-10-23T14:17:18.994Z,3.23
2022-10-23T14:19:45.820Z,3.30
2022-10-23T14:22:12.349Z,3.27
2022-10-23T14:24:38.891Z,3.50
2022-10-23T14:27:05.342Z,3.53
2022-10-23T14:29:31.840Z,3.57
2022-10-23T14:31:58.524Z,3.37
2022-10-23T14:34:24.962Z,3.53
2022-10-23T14:37:07.208Z,3.70
2022-10-23T14:39:34.361Z,3.70
2022-10-23T14:42:00.821Z,3.83
2022-10-23T14:44:27.310Z,3.90
2022-10-23T14:46:53.838Z,4.00
2022-10-23T14:49:20.296Z,3.70
2022-10-23T14:51:46.726Z,4.00
2022-10-23T14:54:13.154Z,3.87
2022-10-23T14:56:40.844Z,3.87
2022-10-23T14:59:07.996Z,4.73
2022-10-23T15:01:45.127Z,4.30
2022-10-23T15:04:14.804Z,4.10
2022-10-23T15:06:42.367Z,4.17
2022-10-23T15:09:09.024Z,5.23
2022-10-23T15:11:35.658Z,4.80
2022-10-23T15:14:02.149Z,4.57
2022-10-23T15:16:28.621Z,4.07
2022-10-23T15:18:55.081Z,4.43
2022-10-23T15:21:21.640Z,4.03
2022-10-23T15:23:48.073Z,3.97
2022-10-23T15:26:20.278Z,4.20
2022-10-23T15:28:47.444Z,5.17
2022-10-23T15:31:40.844Z,5.20
2022-10-23T15:34:11.154Z,4.60
2022-10-23T15:36:37.941Z,3.83
2022-10-23T15:39:08.982Z,4.20
2022-10-23T15:41:36.328Z,4.37
2022-10-23T15:44:03.682Z,4.17
2022-10-23T15:46:30.254Z,4.27
2022-10-23T15:48:56.661Z,4.30
2022-10-23T15:51:23.099Z,3.63
2022-10-23T15:53:49.661Z,3.87
2022-10-23T15:56:16.084Z,3.83
2022-10-23T15:58:42.505Z,4.27
2022-10-23T16:01:09.045Z,5.13
2022-10-23T16:03:36.323Z,5.10
2022-10-23T16:06:03.411Z,5.67
2022-10-23T16:08:29.883Z,5.30
2022-10-23T16:10:56.380Z,6.40
2022-10-23T16:13:22.790Z,9.30
2022-10-23T16:15:49.262Z,7.63
2022-10-23T16:18:18.036Z,6.63
2022-10-23T16:20:44.454Z,7.50
2022-10-23T16:23:10.952Z,7.00
2022-10-23T16:25:38.120Z,14.03
2022-10-23T16:28:05.156Z,12.00
2022-10-23T16:30:31.615Z,10.60
2022-10-23T16:32:58.115Z,12.30
2022-10-23T16:35:24.707Z,12.20
2022-10-23T16:38:03.378Z,11.23
2022-10-23T16:40:29.842Z,11.63
2022-10-23T16:43:14.628Z,10.57
2022-10-23T16:45:45.896Z,7.30
2022-10-23T16:48:12.750Z,7.07
2022-10-23T16:53:11.702Z,6.07
2022-10-23T16:55:40.039Z,7.63
2022-10-23T16:58:06.446Z,7.70
2022-10-23T17:00:35.238Z,12.27
2022-10-23T17:03:02.671Z,12.33
2022-10-23T17:05:29.297Z,11.60
2022-10-23T17:07:55.684Z,11.40
2022-10-23T17:10:22.082Z,8.87
2022-10-23T17:12:49.937Z,6.90
2022-10-23T17:15:16.381Z,6.90
2022-10-23T17:17:43.058Z,6.73
2022-10-23T17:20:10.117Z,7.10
2022-10-23T17:22:37.782Z,6.60
2022-10-23T17:25:04.720Z,7.03
2022-10-23T17:27:31.141Z,6.93
2022-10-23T17:29:58.135Z,6.90
2022-10-23T17:32:24.523Z,6.33
2022-10-23T17:34:50.939Z,6.83
2022-10-23T17:37:17.454Z,7.17
2022-10-23T17:39:43.876Z,7.30
2022-10-23T17:42:10.398Z,7.70
2022-10-23T17:44:36.835Z,7.23
2022-10-23T17:47:03.289Z,7.07
2022-10-23T17:49:29.688Z,7.00
2022-10-23T17:51:57.200Z,7.57
2022-10-23T17:54:24.658Z,7.17
2022-10-23T17:56:51.119Z,7.53
2022-10-23T17:59:19.487Z,7.63
2022-10-23T18:01:49.227Z,7.80
2022-10-23T18:04:16.728Z,7.43
2022-10-23T18:06:47.886Z,7.43
2022-10-23T18:09:14.805Z,6.80
2022-10-23T18:11:45.208Z,7.13
2022-10-23T18:14:14.077Z,7.57
2022-10-23T18:16:40.908Z,6.73
2022-10-23T18:19:07.899Z,7.40
2022-10-23T18:21:35.789Z,6.80
2022-10-23T18:24:02.511Z,7.20
2022-10-23T18:26:30.225Z,7.17
2022-10-23T18:28:58.347Z,7.70
2022-10-23T18:31:30.350Z,12.10
2022-10-23T18:34:04.959Z,10.37
2022-10-23T18:36:32.823Z,9.00
2022-10-23T18:38:59.354Z,8.07
2022-10-23T18:41:25.900Z,7.90
2022-10-23T18:43:53.415Z,9.33
2022-10-23T18:46:20.360Z,8.40
2022-10-23T18:48:47.493Z,9.43
2022-10-23T18:51:18.758Z,9.53
2022-10-23T18:53:47.947Z,8.47
2022-10-23T18:56:22.467Z,7.97
2022-10-23T18:58:50.148Z,8.20
2022-10-23T19:01:17.106Z,8.00
2022-10-23T19:03:43.695Z,8.00
2022-10-23T19:06:10.144Z,7.07
2022-10-23T19:08:40.117Z,7.53
2022-10-23T19:11:07.435Z,6.90
2022-10-23T19:13:38.987Z,6.97
2022-10-23T19:16:12.809Z,7.00
2022-10-23T19:18:40.453Z,6.50
2022-10-23T19:21:07.682Z,6.97
2022-10-23T19:23:36.439Z,7.43
2022-10-23T19:26:08.747Z,7.57
2022-10-23T19:28:40.041Z,9.23
2022-10-23T19:31:07.900Z,8.17
2022-10-23T19:33:36.111Z,7.57
2022-10-23T19:36:05.425Z,7.57
2022-10-23T19:38:34.192Z,9.07
2022-10-23T19:41:01.036Z,8.67
2022-10-23T19:43:27.613Z,8.37
2022-10-23T19:45:54.014Z,7.90
2022-10-23T19:48:20.638Z,7.47
2022-10-23T19:50:47.055Z,6.63
2022-10-23T19:53:13.560Z,6.73
2022-10-23T19:55:39.985Z,6.63
2022-10-23T19:58:06.444Z,6.93
2022-10-23T20:00:32.863Z,7.07
2022-10-23T20:02:59.281Z,7.77
2022-10-23T20:05:25.807Z,7.90
2022-10-23T20:07:52.215Z,7.70
2022-10-23T20:10:18.784Z,9.03
2022-10-23T20:12:51.612Z,8.63
2022-10-23T20:15:29.037Z,8.03
2022-10-23T20:17:55.447Z,8.00
2022-10-23T20:20:22.016Z,7.40
2022-10-23T20:22:52.088Z,6.93
2022-10-23T20:25:21.153Z,7.70
2022-10-23T20:27:47.664Z,7.37
2022-10-23T20:30:14.101Z,7.17
2022-10-23T20:32:40.509Z,6.30
2022-10-23T20:35:07.386Z,6.70
2022-10-23T20:37:33.807Z,7.23
2022-10-23T20:40:00.210Z,7.70
2022-10-23T20:42:26.668Z,6.90
2022-10-23T20:44:53.051Z,6.80
2022-10-23T20:47:19.482Z,7.17
2022-10-23T20:49:47.760Z,7.17
2022-10-23T20:52:14.162Z,6.80
2022-10-23T20:54:40.634Z,6.40
2022-10-23T20:57:07.156Z,6.00
2022-10-23T20:59:34.180Z,6.17
2022-10-23T21:02:00.824Z,5.90
2022-10-23T21:04:27.798Z,6.13
2022-10-23T21:07:09.592Z,6.33
2022-10-23T21:09:37.942Z,6.70
2022-10-23T21:12:06.382Z,6.37
2022-10-23T21:14:33.048Z,6.10
2022-10-23T21:16:59.470Z,6.10
2022-10-23T21:19:25.880Z,5.90
2022-10-23T21:21:52.562Z,7.00
2022-10-23T21:24:18.986Z,5.70
2022-10-23T21:26:45.582Z,6.70
2022-10-23T21:29:20.248Z,6.30
2022-10-23T21:31:57.459Z,5.50
2022-10-23T21:34:24.682Z,6.03
2022-10-23T21:39:37.986Z,5.90
2022-10-23T21:42:04.454Z,5.37
2022-10-23T21:44:30.857Z,5.45
2022-10-23T21:46:57.255Z,4.90
2022-10-23T21:49:23.828Z,5.50
2022-10-23T21:51:50.278Z,4.70
2022-10-23T21:54:16.714Z,4.93
2022-10-23T21:56:47.483Z,4.90
2022-10-23T21:59:14.950Z,4.77
2022-10-23T22:01:43.253Z,4.90
2022-10-23T22:04:14.342Z,4.97
2022-10-23T22:06:41.788Z,4.03
2022-10-23T22:09:08.823Z,4.43
2022-10-23T22:11:35.366Z,5.33
2022-10-23T22:14:01.800Z,4.33
2022-10-23T22:16:28.294Z,4.40
2022-10-23T22:18:54.683Z,4.30
2022-10-23T22:21:26.148Z,4.23
2022-10-23T22:23:54.262Z,4.50
2022-10-23T22:26:29.491Z,4.47
2022-10-23T22:28:57.686Z,4.43
2022-10-23T22:31:26.288Z,4.53
2022-10-23T22:33:53.138Z,4.23
2022-10-23T22:36:20.289Z,4.03
2022-10-23T22:38:47.025Z,4.47
2022-10-23T22:41:13.544Z,4.70
2022-10-23T22:43:40.015Z,4.87
2022-10-23T22:46:07.967Z,4.37
2022-10-23T22:48:34.980Z,4.90
2022-10-23T22:51:01.587Z,5.13
2022-10-23T22:53:28.063Z,5.27
2022-10-23T22:55:55.006Z,5.10
2022-10-23T22:58:21.797Z,5.43
2022-10-23T23:00:48.992Z,5.40
2022-10-23T23:03:15.514Z,5.40
2022-10-23T23:05:43.489Z,6.17
2022-10-23T23:08:10.383Z,5.77
2022-10-23T23:10:36.946Z,5.63
2022-10-23T23:13:03.494Z,5.53
2022-10-23T23:15:30.103Z,5.57
2022-10-23T23:17:56.578Z,5.23
2022-10-23T23:20:23.011Z,5.47
2022-10-23T23:22:49.499Z,6.00
2022-10-23T23:25:15.972Z,6.07
2022-10-23T23:27:42.368Z,5.47
2022-10-23T23:30:09.235Z,5.87
2022-10-23T23:32:36.228Z,5.90
2022-10-23T23:35:02.802Z,5.23
2022-10-23T23:37:29.330Z,5.60
2022-10-23T23:39:55.831Z,5.80
2022-10-23T23:42:22.287Z,5.60
2022-10-23T23:44:56.003Z,5.77
2022-10-23T23:47:29.513Z,6.13
2022-10-23T23:49:55.998Z,5.60
2022-10-23T23:52:22.628Z,5.70
2022-10-23T23:54:49.063Z,5.07
2022-10-23T23:57:15.524Z,5.30
2022-10-23T23:59:42.220Z,5.70
